createdAt,value
2023-05-13T00:00:44.938Z,7.27
2023-05-13T00:03:12.575Z,7.24
2023-05-13T00:05:40.589Z,7.20
2023-05-13T00:08:08.217Z,7.16
2023-05-13T00:10:35.658Z,7.13
2023-05-13T00:13:02.915Z,7.09
2023-05-13T00:15:30.201Z,7.06
2023-05-13T00:17:57.658Z,7.03
2023-05-13T00:20:25.191Z,7.01
2023-05-13T00:22:52.536Z,6.98
2023-05-13T00:25:19.957Z,6.95
2023-05-13T00:27:47.120Z,6.94
2023-05-13T00:30:14.714Z,6.94
2023-05-13T00:32:42.303Z,6.94
2023-05-13T00:35:10.130Z,6.93
2023-05-13T00:37:37.852Z,6.92
2023-05-13T00:40:05.369Z,6.89
2023-05-13T00:42:32.811Z,6.86
2023-05-13T00:45:00.116Z,6.81
2023-05-13T00:47:27.591Z,6.76
2023-05-13T00:49:54.995Z,6.71
2023-05-13T00:52:22.425Z,6.65
2023-05-13T00:54:49.651Z,6.59
2023-05-13T00:57:17.006Z,6.57
2023-05-13T00:59:44.518Z,6.56
2023-05-13T01:02:24.549Z,6.55
2023-05-13T01:05:13.480Z,6.53
2023-05-13T01:07:49.144Z,6.53
2023-05-13T01:10:22.560Z,6.52
2023-05-13T01:12:51.457Z,6.52
2023-05-13T01:15:23.822Z,6.52
2023-05-13T01:18:07.895Z,6.52
2023-05-13T01:20:35.432Z,6.51
2023-05-13T01:23:04.400Z,6.52
2023-05-13T01:25:31.921Z,6.56
2023-05-13T01:27:59.253Z,6.62
2023-05-13T01:30:27.049Z,6.70
2023-05-13T01:32:54.594Z,6.79
2023-05-13T01:35:21.919Z,6.90
2023-05-13T01:37:50.394Z,6.99
2023-05-13T01:40:31.776Z,7.05
2023-05-13T01:43:02.673Z,7.05
2023-05-13T01:45:30.453Z,7.02
2023-05-13T01:47:58.397Z,6.96
2023-05-13T01:50:26.648Z,6.91
2023-05-13T01:52:54.233Z,6.89
2023-05-13T01:55:22.088Z,6.87
2023-05-13T01:57:49.994Z,6.89
2023-05-13T02:00:18.921Z,6.91
2023-05-13T02:02:49.349Z,6.92
2023-05-13T02:05:17.217Z,6.92
2023-05-13T02:07:45.102Z,6.92
2023-05-13T02:10:12.957Z,6.93
2023-05-13T02:12:40.533Z,6.94
2023-05-13T02:15:08.545Z,6.97
2023-05-13T02:17:35.992Z,7.00
2023-05-13T02:20:04.334Z,7.02
2023-05-13T02:22:31.858Z,7.04
2023-05-13T02:24:59.198Z,7.06
2023-05-13T02:27:27.150Z,7.07
2023-05-13T02:29:54.739Z,7.08
2023-05-13T02:32:22.511Z,7.06
2023-05-13T02:34:50.146Z,7.04
2023-05-13T02:37:17.568Z,7.05
2023-05-13T02:39:49.279Z,7.09
2023-05-13T02:42:18.171Z,7.17
2023-05-13T02:44:46.236Z,7.28
2023-05-13T02:47:13.877Z,7.44
2023-05-13T02:49:41.160Z,7.61
2023-05-13T02:52:08.600Z,7.83
2023-05-13T02:54:36.737Z,8.07
2023-05-13T02:57:04.701Z,8.31
2023-05-13T02:59:32.053Z,8.50
2023-05-13T03:01:59.540Z,8.65
2023-05-13T03:04:27.280Z,8.79
2023-05-13T03:06:54.769Z,8.91
2023-05-13T03:09:22.134Z,9.02
2023-05-13T03:11:49.382Z,9.11
2023-05-13T03:14:16.825Z,9.20
2023-05-13T03:16:45.086Z,9.30
2023-05-13T03:19:14.321Z,9.39
2023-05-13T03:21:41.926Z,9.49
2023-05-13T03:24:11.373Z,9.58
2023-05-13T03:26:38.801Z,9.68
2023-05-13T03:29:06.291Z,9.77
2023-05-13T03:31:35.037Z,9.85
2023-05-13T03:34:03.706Z,9.91
2023-05-13T03:36:32.704Z,9.97
2023-05-13T03:39:00.554Z,10.04
2023-05-13T03:41:28.500Z,10.11
2023-05-13T03:43:57.530Z,10.16
2023-05-13T03:46:27.558Z,10.19
2023-05-13T03:48:56.013Z,10.23
2023-05-13T03:51:23.665Z,10.28
2023-05-13T03:53:51.274Z,10.33
2023-05-13T03:56:18.763Z,10.37
2023-05-13T03:58:46.127Z,10.40
2023-05-13T04:01:13.396Z,10.43
2023-05-13T04:03:43.074Z,10.44
2023-05-13T04:06:10.374Z,10.49
2023-05-13T04:08:37.996Z,10.54
2023-05-13T04:11:05.284Z,10.60
2023-05-13T04:13:36.278Z,10.65
2023-05-13T04:16:04.080Z,10.72
2023-05-13T04:18:31.800Z,10.83
2023-05-13T04:20:59.235Z,10.94
2023-05-13T04:23:26.745Z,11.07
2023-05-13T04:25:54.189Z,11.19
2023-05-13T04:28:21.808Z,11.32
2023-05-13T04:30:50.581Z,11.47
2023-05-13T04:33:18.338Z,11.66
2023-05-13T04:35:48.124Z,11.85
2023-05-13T04:38:15.817Z,12.05
2023-05-13T04:40:44.663Z,12.25
2023-05-13T04:43:14.359Z,12.45
2023-05-13T04:45:48.029Z,12.60
2023-05-13T04:48:16.197Z,12.72
2023-05-13T04:50:47.183Z,12.87
2023-05-13T04:53:16.113Z,13.02
2023-05-13T04:55:48.091Z,13.19
2023-05-13T04:58:15.603Z,13.36
2023-05-13T05:00:43.099Z,13.53
2023-05-13T05:03:11.085Z,13.69
2023-05-13T05:05:40.323Z,13.82
2023-05-13T05:08:09.386Z,13.93
2023-05-13T05:10:37.865Z,14.05
2023-05-13T05:13:05.459Z,14.19
2023-05-13T05:15:33.796Z,14.33
2023-05-13T05:18:02.492Z,14.49
2023-05-13T05:20:31.280Z,14.61
2023-05-13T05:23:00.602Z,14.74
2023-05-13T05:25:29.641Z,14.89
2023-05-13T05:27:57.467Z,15.05
2023-05-13T05:30:26.286Z,15.19
2023-05-13T05:33:01.677Z,15.29
2023-05-13T05:35:29.472Z,15.41
2023-05-13T05:37:57.093Z,15.54
2023-05-13T05:40:25.266Z,15.61
2023-05-13T05:42:52.685Z,15.68
2023-05-13T05:45:20.911Z,15.82
2023-05-13T05:47:48.342Z,15.94
2023-05-13T05:50:16.853Z,16.04
2023-05-13T05:52:45.474Z,16.17
2023-05-13T05:55:14.004Z,16.32
2023-05-13T05:57:41.449Z,16.47
2023-05-13T06:00:10.638Z,16.57
2023-05-13T06:02:42.590Z,16.60
2023-05-13T06:05:10.618Z,16.70
2023-05-13T06:07:41.791Z,16.89
2023-05-13T06:10:09.892Z,17.03
2023-05-13T06:12:37.305Z,17.16
2023-05-13T06:15:06.774Z,17.29
2023-05-13T06:17:34.347Z,17.39
2023-05-13T06:20:01.866Z,17.42
2023-05-13T06:22:29.207Z,17.50
2023-05-13T06:24:56.666Z,17.58
2023-05-13T06:27:24.296Z,17.71
2023-05-13T06:29:51.753Z,17.87
2023-05-13T06:32:20.360Z,18.01
2023-05-13T06:34:48.732Z,18.15
2023-05-13T06:37:16.114Z,18.30
2023-05-13T06:39:44.007Z,18.49
2023-05-13T06:42:12.979Z,18.62
2023-05-13T06:44:46.503Z,18.70
2023-05-13T06:47:16.214Z,18.83
2023-05-13T06:49:44.707Z,19.06
2023-05-13T06:52:12.492Z,19.29
2023-05-13T06:54:40.792Z,19.51
2023-05-13T06:57:08.563Z,19.73
2023-05-13T06:59:36.255Z,19.90
2023-05-13T07:02:04.683Z,20.05
2023-05-13T07:04:32.323Z,20.17
2023-05-13T07:06:59.544Z,20.18
2023-05-13T07:09:27.620Z,20.11
2023-05-13T07:11:55.020Z,19.95
2023-05-13T07:14:22.454Z,19.94
2023-05-13T07:16:50.093Z,19.99
2023-05-13T07:19:17.662Z,20.16
2023-05-13T07:21:45.060Z,20.39
2023-05-13T07:24:12.572Z,20.60
2023-05-13T07:26:39.977Z,20.66
2023-05-13T07:29:07.569Z,20.70
2023-05-13T07:31:34.942Z,20.75
2023-05-13T07:34:02.346Z,20.77
2023-05-13T07:36:29.664Z,20.86
2023-05-13T07:38:57.050Z,21.02
2023-05-13T07:41:24.500Z,21.16
2023-05-13T07:43:52.104Z,21.23
2023-05-13T07:46:22.058Z,21.28
2023-05-13T07:48:49.572Z,21.38
2023-05-13T07:51:18.656Z,21.47
2023-05-13T07:53:47.453Z,21.52
2023-05-13T07:56:14.847Z,21.51
2023-05-13T07:58:42.313Z,21.43
2023-05-13T08:01:09.756Z,21.47
2023-05-13T08:03:37.467Z,21.55
2023-05-13T08:06:06.064Z,21.58
2023-05-13T08:08:33.472Z,21.73
2023-05-13T08:11:00.907Z,21.71
2023-05-13T08:13:28.282Z,21.73
2023-05-13T08:15:55.995Z,21.70
2023-05-13T08:18:23.598Z,21.45
2023-05-13T08:20:51.058Z,21.10
2023-05-13T08:23:18.293Z,20.85
2023-05-13T08:25:45.885Z,20.82
2023-05-13T08:28:13.394Z,20.94
2023-05-13T08:30:44.610Z,21.18
2023-05-13T08:33:12.273Z,21.43
2023-05-13T08:35:39.683Z,21.74
2023-05-13T08:38:07.011Z,21.96
2023-05-13T08:40:37.029Z,22.10
2023-05-13T08:43:05.103Z,22.24
2023-05-13T08:45:33.391Z,22.50
2023-05-13T08:50:29.771Z,22.86
2023-05-13T08:52:58.353Z,22.77
2023-05-13T08:55:25.760Z,22.55
2023-05-13T08:57:53.314Z,22.56
2023-05-13T09:00:21.872Z,22.54
2023-05-13T09:02:51.276Z,22.66
2023-05-13T09:05:18.828Z,22.82
2023-05-13T09:07:46.418Z,22.98
2023-05-13T09:10:13.861Z,23.09
2023-05-13T09:12:48.615Z,23.16
2023-05-13T09:15:17.913Z,23.36
2023-05-13T09:17:48.096Z,23.53
2023-05-13T09:20:16.867Z,23.69
2023-05-13T09:23:06.721Z,23.82
2023-05-13T09:25:34.272Z,23.82
2023-05-13T09:28:03.144Z,23.92
2023-05-13T09:30:32.987Z,23.88
2023-05-13T09:33:13.858Z,23.79
2023-05-13T09:35:45.366Z,23.59
2023-05-13T09:38:20.158Z,23.57
2023-05-13T09:41:02.171Z,23.70
2023-05-13T09:43:32.956Z,23.64
2023-05-13T09:46:04.548Z,23.30
2023-05-13T09:48:34.547Z,22.89
2023-05-13T09:51:01.530Z,22.63
2023-05-13T09:53:28.586Z,22.39
2023-05-13T09:55:59.140Z,22.14
2023-05-13T09:58:28.232Z,22.03
2023-05-13T10:00:57.092Z,21.94
2023-05-13T10:03:24.574Z,21.82
2023-05-13T10:05:52.708Z,21.84
2023-05-13T10:08:20.370Z,22.01
2023-05-13T10:10:47.854Z,22.34
2023-05-13T10:13:16.511Z,22.72
2023-05-13T10:15:51.375Z,22.96
2023-05-13T10:18:19.812Z,23.24
2023-05-13T10:20:47.584Z,23.50
2023-05-13T10:23:14.889Z,23.74
2023-05-13T10:25:42.390Z,24.00
2023-05-13T10:28:09.872Z,24.13
2023-05-13T10:30:37.261Z,24.13
2023-05-13T10:33:04.741Z,23.97
2023-05-13T10:35:37.535Z,23.94
2023-05-13T10:38:17.159Z,23.97
2023-05-13T10:40:53.983Z,23.80
2023-05-13T10:43:22.764Z,23.48
2023-05-13T10:45:51.561Z,23.12
2023-05-13T10:48:19.113Z,22.93
2023-05-13T10:50:56.497Z,22.86
2023-05-13T10:53:25.531Z,22.84
2023-05-13T10:55:54.699Z,22.89
2023-05-13T10:58:24.779Z,23.17
2023-05-13T11:00:52.368Z,23.43
2023-05-13T11:03:22.126Z,23.20
2023-05-13T11:06:29.204Z,22.92
2023-05-13T11:08:56.593Z,22.84
2023-05-13T11:11:33.370Z,23.14
2023-05-13T11:14:09.996Z,23.57
2023-05-13T11:16:37.929Z,23.98
2023-05-13T11:19:18.572Z,24.26
2023-05-13T11:21:55.062Z,24.51
2023-05-13T11:24:22.607Z,24.40
2023-05-13T11:26:57.421Z,24.09
2023-05-13T11:29:31.963Z,23.92
2023-05-13T11:32:00.816Z,23.95
2023-05-13T11:34:28.491Z,23.99
2023-05-13T11:37:05.298Z,23.95
2023-05-13T11:39:32.867Z,23.99
2023-05-13T11:42:01.962Z,24.05
2023-05-13T11:44:31.760Z,24.14
2023-05-13T11:47:06.444Z,24.32
2023-05-13T11:49:38.944Z,24.56
2023-05-13T11:52:09.038Z,24.75
2023-05-13T11:54:48.690Z,24.75
2023-05-13T11:57:26.445Z,24.57
2023-05-13T11:59:55.003Z,24.33
2023-05-13T12:02:26.784Z,24.16
2023-05-13T12:04:54.398Z,23.87
2023-05-13T12:07:25.117Z,23.81
2023-05-13T12:09:54.344Z,24.11
2023-05-13T12:12:21.917Z,24.39
2023-05-13T12:14:53.224Z,24.68
2023-05-13T12:17:20.815Z,24.90
2023-05-13T12:20:07.479Z,24.86
2023-05-13T12:22:35.842Z,24.68
2023-05-13T12:25:42.396Z,24.45
2023-05-13T12:28:45.211Z,24.20
2023-05-13T12:31:16.386Z,23.91
2023-05-13T12:33:44.499Z,24.04
2023-05-13T12:36:21.375Z,24.31
2023-05-13T12:39:07.472Z,24.59
2023-05-13T12:41:36.406Z,24.54
2023-05-13T12:44:10.187Z,24.52
2023-05-13T12:46:37.909Z,24.71
2023-05-13T12:49:06.254Z,24.70
2023-05-13T12:51:34.087Z,24.49
2023-05-13T12:54:01.928Z,24.10
2023-05-13T12:56:29.286Z,23.79
2023-05-13T12:58:56.729Z,23.65
2023-05-13T13:01:24.134Z,23.86
2023-05-13T13:03:51.807Z,24.27
2023-05-13T13:06:19.365Z,24.36
2023-05-13T13:08:46.819Z,24.56
2023-05-13T13:11:20.364Z,24.75
2023-05-13T13:13:48.487Z,24.81
2023-05-13T13:16:15.796Z,24.82
2023-05-13T13:18:43.242Z,24.75
2023-05-13T13:21:10.778Z,24.62
2023-05-13T13:23:38.438Z,24.34
2023-05-13T13:26:05.973Z,23.96
2023-05-13T13:28:33.728Z,23.65
2023-05-13T13:31:01.318Z,23.51
2023-05-13T13:33:28.910Z,23.58
2023-05-13T13:35:56.413Z,23.89
2023-05-13T13:38:23.851Z,24.14
2023-05-13T13:40:51.339Z,24.43
2023-05-13T13:43:19.750Z,24.74
2023-05-13T13:45:47.181Z,24.79
2023-05-13T13:48:14.648Z,24.62
2023-05-13T13:50:42.020Z,24.54
2023-05-13T13:53:09.376Z,24.27
2023-05-13T13:55:36.686Z,24.04
2023-05-13T13:58:04.550Z,23.81
2023-05-13T14:00:32.045Z,23.57
2023-05-13T14:02:59.602Z,23.46
2023-05-13T14:05:27.101Z,23.62
2023-05-13T14:07:56.054Z,23.80
2023-05-13T14:10:23.636Z,23.91
2023-05-13T14:12:51.230Z,24.09
2023-05-13T14:15:18.597Z,24.39
2023-05-13T14:17:45.958Z,24.72
2023-05-13T14:20:13.422Z,24.81
2023-05-13T14:22:40.906Z,24.90
2023-05-13T14:25:09.514Z,24.99
2023-05-13T14:27:36.965Z,25.10
2023-05-13T14:30:05.606Z,25.11
2023-05-13T14:32:33.902Z,24.77
2023-05-13T14:35:01.389Z,24.20
2023-05-13T14:37:28.874Z,23.66
2023-05-13T14:39:56.295Z,23.33
2023-05-13T14:42:23.737Z,23.10
2023-05-13T14:44:51.167Z,22.94
2023-05-13T14:47:19.629Z,22.99
2023-05-13T14:49:47.054Z,23.23
2023-05-13T14:52:14.353Z,23.68
2023-05-13T14:54:41.630Z,23.93
2023-05-13T14:57:08.951Z,23.98
2023-05-13T14:59:36.343Z,24.09
2023-05-13T15:02:03.971Z,24.36
2023-05-13T15:04:31.355Z,24.75
2023-05-13T15:06:59.450Z,25.20
2023-05-13T15:09:27.062Z,25.52
2023-05-13T15:11:54.445Z,25.64
2023-05-13T15:14:25.985Z,25.71
2023-05-13T15:16:53.761Z,25.81
2023-05-13T15:19:21.224Z,25.98
2023-05-13T15:21:48.631Z,26.13
2023-05-13T15:24:16.061Z,26.08
2023-05-13T15:26:43.641Z,26.01
2023-05-13T15:29:11.018Z,26.03
2023-05-13T15:31:38.378Z,26.06
2023-05-13T15:34:06.022Z,26.02
2023-05-13T15:36:34.606Z,25.76
2023-05-13T15:39:02.747Z,25.48
2023-05-13T15:41:30.416Z,25.33
2023-05-13T15:43:57.758Z,25.23
2023-05-13T15:46:25.939Z,25.16
2023-05-13T15:48:53.439Z,25.03
2023-05-13T15:51:21.376Z,24.68
2023-05-13T15:53:48.856Z,24.21
2023-05-13T15:56:16.107Z,23.95
2023-05-13T15:58:43.484Z,23.88
2023-05-13T16:01:11.214Z,23.94
2023-05-13T16:03:38.836Z,24.00
